sensor_id;sensor_type;location;lat;lon;timestamp;temperature;humidity
16271;DHT22;8243;49.048;8.396;2024-01-25T00:00:05;10.70;98.60
16271;DHT22;8243;49.048;8.396;2024-01-25T00:02:37;10.70;98.70
16271;DHT22;8243;49.048;8.396;2024-01-25T00:05:03;10.70;99.20
16271;DHT22;8243;49.048;8.396;2024-01-25T00:07:29;10.70;99.90
16271;DHT22;8243;49.048;8.396;2024-01-25T00:09:55;10.70;99.90
16271;DHT22;8243;49.048;8.396;2024-01-25T00:12:20;10.70;99.90
16271;DHT22;8243;49.048;8.396;2024-01-25T00:14:45;10.70;99.90
16271;DHT22;8243;49.048;8.396;2024-01-25T00:17:11;10.70;99.90
16271;DHT22;8243;49.048;8.396;2024-01-25T00:19:36;10.80;99.90
16271;DHT22;8243;49.048;8.396;2024-01-25T00:22:02;10.80;99.90
16271;DHT22;8243;49.048;8.396;2024-01-25T00:24:28;10.70;99.90
16271;DHT22;8243;49.048;8.396;2024-01-25T00:26:53;10.70;99.90
16271;DHT22;8243;49.048;8.396;2024-01-25T00:29:19;10.70;99.90
16271;DHT22;8243;49.048;8.396;2024-01-25T00:31:44;10.70;99.90
16271;DHT22;8243;49.048;8.396;2024-01-25T00:34:10;10.70;99.90
16271;DHT22;8243;49.048;8.396;2024-01-25T00:36:36;10.70;99.90
16271;DHT22;8243;49.048;8.396;2024-01-25T00:39:01;10.70;99.90
16271;DHT22;8243;49.048;8.396;2024-01-25T00:41:31;10.70;99.90
16271;DHT22;8243;49.048;8.396;2024-01-25T00:43:57;10.60;99.90
16271;DHT22;8243;49.048;8.396;2024-01-25T00:46:23;10.70;99.90
16271;DHT22;8243;49.048;8.396;2024-01-25T00:48:49;10.70;99.90
16271;DHT22;8243;49.048;8.396;2024-01-25T00:51:15;10.70;99.90
16271;DHT22;8243;49.048;8.396;2024-01-25T00:53:46;10.70;99.90
16271;DHT22;8243;49.048;8.396;2024-01-25T00:56:12;10.70;99.90
16271;DHT22;8243;49.048;8.396;2024-01-25T00:58:37;10.60;99.90
16271;DHT22;8243;49.048;8.396;2024-01-25T01:01:03;10.70;99.90
16271;DHT22;8243;49.048;8.396;2024-01-25T01:03:29;10.60;99.90
16271;DHT22;8243;49.048;8.396;2024-01-25T01:05:55;10.60;99.90
16271;DHT22;8243;49.048;8.396;2024-01-25T01:08:22;10.60;99.90
16271;DHT22;8243;49.048;8.396;2024-01-25T01:10:48;10.70;99.90
16271;DHT22;8243;49.048;8.396;2024-01-25T01:13:13;10.70;99.90
16271;DHT22;8243;49.048;8.396;2024-01-25T01:15:39;10.70;99.90
16271;DHT22;8243;49.048;8.396;2024-01-25T01:18:04;10.60;99.90
16271;DHT22;8243;49.048;8.396;2024-01-25T01:20:33;10.60;99.90
16271;DHT22;8243;49.048;8.396;2024-01-25T01:22:58;10.60;99.90
16271;DHT22;8243;49.048;8.396;2024-01-25T01:25:24;10.60;99.90
16271;DHT22;8243;49.048;8.396;2024-01-25T01:27:49;10.60;99.90
16271;DHT22;8243;49.048;8.396;2024-01-25T01:30:15;10.70;99.90
16271;DHT22;8243;49.048;8.396;2024-01-25T01:32:40;10.60;99.90
16271;DHT22;8243;49.048;8.396;2024-01-25T01:35:06;10.60;99.90
16271;DHT22;8243;49.048;8.396;2024-01-25T01:37:32;10.60;99.90
16271;DHT22;8243;49.048;8.396;2024-01-25T01:39:57;10.60;99.90
16271;DHT22;8243;49.048;8.396;2024-01-25T01:42:24;10.60;99.90
16271;DHT22;8243;49.048;8.396;2024-01-25T01:44:52;10.50;99.90
16271;DHT22;8243;49.048;8.396;2024-01-25T01:47:19;10.50;99.90
16271;DHT22;8243;49.048;8.396;2024-01-25T01:49:44;10.50;99.90
16271;DHT22;8243;49.048;8.396;2024-01-25T01:52:11;10.50;99.90
16271;DHT22;8243;49.048;8.396;2024-01-25T01:54:37;10.50;99.90
16271;DHT22;8243;49.048;8.396;2024-01-25T01:57:03;10.50;99.90
16271;DHT22;8243;49.048;8.396;2024-01-25T01:59:29;10.50;99.90
16271;DHT22;8243;49.048;8.396;2024-01-25T02:01:55;10.50;99.90
16271;DHT22;8243;49.048;8.396;2024-01-25T02:04:20;10.50;99.90
16271;DHT22;8243;49.048;8.396;2024-01-25T02:06:46;10.60;99.90
16271;DHT22;8243;49.048;8.396;2024-01-25T02:09:12;10.60;99.90
16271;DHT22;8243;49.048;8.396;2024-01-25T02:11:38;10.60;99.90
16271;DHT22;8243;49.048;8.396;2024-01-25T02:14:03;10.60;99.90
16271;DHT22;8243;49.048;8.396;2024-01-25T02:16:29;10.60;99.90
16271;DHT22;8243;49.048;8.396;2024-01-25T02:18:54;10.50;99.90
16271;DHT22;8243;49.048;8.396;2024-01-25T02:21:22;10.50;99.90
16271;DHT22;8243;49.048;8.396;2024-01-25T02:23:48;10.50;99.90
16271;DHT22;8243;49.048;8.396;2024-01-25T02:26:13;10.50;99.90
16271;DHT22;8243;49.048;8.396;2024-01-25T02:28:39;10.50;99.90
16271;DHT22;8243;49.048;8.396;2024-01-25T02:31:04;10.50;99.50
16271;DHT22;8243;49.048;8.396;2024-01-25T02:33:30;10.50;99.10
16271;DHT22;8243;49.048;8.396;2024-01-25T02:35:55;10.50;99.50
16271;DHT22;8243;49.048;8.396;2024-01-25T02:38:21;10.50;99.10
16271;DHT22;8243;49.048;8.396;2024-01-25T02:40:46;10.60;96.30
16271;DHT22;8243;49.048;8.396;2024-01-25T02:43:12;10.50;96.10
16271;DHT22;8243;49.048;8.396;2024-01-25T02:45:38;10.50;94.20
16271;DHT22;8243;49.048;8.396;2024-01-25T02:48:04;10.60;93.20
16271;DHT22;8243;49.048;8.396;2024-01-25T02:50:29;10.60;93.30
16271;DHT22;8243;49.048;8.396;2024-01-25T02:52:55;10.50;93.30
16271;DHT22;8243;49.048;8.396;2024-01-25T02:55:21;10.50;92.80
16271;DHT22;8243;49.048;8.396;2024-01-25T02:57:46;10.50;93.30
16271;DHT22;8243;49.048;8.396;2024-01-25T03:00:12;10.50;93.50
16271;DHT22;8243;49.048;8.396;2024-01-25T03:02:38;10.50;93.40
16271;DHT22;8243;49.048;8.396;2024-01-25T03:05:04;10.40;93.40
16271;DHT22;8243;49.048;8.396;2024-01-25T03:07:29;10.40;93.00
16271;DHT22;8243;49.048;8.396;2024-01-25T03:09:55;10.40;92.90
16271;DHT22;8243;49.048;8.396;2024-01-25T03:12:20;10.40;92.90
16271;DHT22;8243;49.048;8.396;2024-01-25T03:14:47;10.40;92.90
16271;DHT22;8243;49.048;8.396;2024-01-25T03:17:12;10.40;93.00
16271;DHT22;8243;49.048;8.396;2024-01-25T03:19:39;10.40;93.00
16271;DHT22;8243;49.048;8.396;2024-01-25T03:22:05;10.40;93.00
16271;DHT22;8243;49.048;8.396;2024-01-25T03:24:30;10.40;93.10
16271;DHT22;8243;49.048;8.396;2024-01-25T03:26:56;10.50;92.30
16271;DHT22;8243;49.048;8.396;2024-01-25T03:29:21;10.40;92.20
16271;DHT22;8243;49.048;8.396;2024-01-25T03:31:47;10.50;92.00
16271;DHT22;8243;49.048;8.396;2024-01-25T03:34:12;10.50;90.90
16271;DHT22;8243;49.048;8.396;2024-01-25T03:36:38;10.40;90.20
16271;DHT22;8243;49.048;8.396;2024-01-25T03:39:05;10.40;90.90
16271;DHT22;8243;49.048;8.396;2024-01-25T03:41:30;10.30;91.30
16271;DHT22;8243;49.048;8.396;2024-01-25T03:43:56;10.30;90.90
16271;DHT22;8243;49.048;8.396;2024-01-25T03:46:21;10.40;90.40
16271;DHT22;8243;49.048;8.396;2024-01-25T03:48:47;10.40;90.00
16271;DHT22;8243;49.048;8.396;2024-01-25T03:51:13;10.30;90.00
16271;DHT22;8243;49.048;8.396;2024-01-25T03:53:38;10.30;90.20
16271;DHT22;8243;49.048;8.396;2024-01-25T03:56:10;10.30;90.20
16271;DHT22;8243;49.048;8.396;2024-01-25T03:58:36;10.30;89.80
16271;DHT22;8243;49.048;8.396;2024-01-25T04:01:02;10.30;88.90
16271;DHT22;8243;49.048;8.396;2024-01-25T04:03:28;10.30;88.70
16271;DHT22;8243;49.048;8.396;2024-01-25T04:05:53;10.30;89.30
16271;DHT22;8243;49.048;8.396;2024-01-25T04:08:19;10.20;89.50
16271;DHT22;8243;49.048;8.396;2024-01-25T04:10:44;10.20;89.80
16271;DHT22;8243;49.048;8.396;2024-01-25T04:13:10;10.20;89.70
16271;DHT22;8243;49.048;8.396;2024-01-25T04:15:36;10.20;89.40
16271;DHT22;8243;49.048;8.396;2024-01-25T04:18:01;10.20;88.00
16271;DHT22;8243;49.048;8.396;2024-01-25T04:20:27;10.20;86.70
16271;DHT22;8243;49.048;8.396;2024-01-25T04:22:52;10.20;86.90
16271;DHT22;8243;49.048;8.396;2024-01-25T04:25:18;10.20;87.10
16271;DHT22;8243;49.048;8.396;2024-01-25T04:27:44;10.20;86.50
16271;DHT22;8243;49.048;8.396;2024-01-25T04:30:09;10.20;85.70
16271;DHT22;8243;49.048;8.396;2024-01-25T04:32:35;10.20;84.70
16271;DHT22;8243;49.048;8.396;2024-01-25T04:35:01;10.20;84.80
16271;DHT22;8243;49.048;8.396;2024-01-25T04:37:26;10.10;83.90
16271;DHT22;8243;49.048;8.396;2024-01-25T04:39:52;10.10;84.40
16271;DHT22;8243;49.048;8.396;2024-01-25T04:42:18;10.00;85.90
16271;DHT22;8243;49.048;8.396;2024-01-25T04:44:43;9.90;88.10
16271;DHT22;8243;49.048;8.396;2024-01-25T04:47:09;9.80;89.80
16271;DHT22;8243;49.048;8.396;2024-01-25T04:49:35;9.70;90.10
16271;DHT22;8243;49.048;8.396;2024-01-25T04:52:01;9.60;90.60
16271;DHT22;8243;49.048;8.396;2024-01-25T04:54:26;9.60;91.10
16271;DHT22;8243;49.048;8.396;2024-01-25T04:56:52;9.50;91.90
16271;DHT22;8243;49.048;8.396;2024-01-25T04:59:18;9.40;91.80
16271;DHT22;8243;49.048;8.396;2024-01-25T05:01:43;9.40;91.70
16271;DHT22;8243;49.048;8.396;2024-01-25T05:04:09;9.40;91.70
16271;DHT22;8243;49.048;8.396;2024-01-25T05:06:34;9.40;91.50
16271;DHT22;8243;49.048;8.396;2024-01-25T05:09:00;9.30;92.30
16271;DHT22;8243;49.048;8.396;2024-01-25T05:11:26;9.20;92.80
16271;DHT22;8243;49.048;8.396;2024-01-25T05:13:51;9.10;93.60
16271;DHT22;8243;49.048;8.396;2024-01-25T05:16:17;9.00;94.90
16271;DHT22;8243;49.048;8.396;2024-01-25T05:18:43;9.00;95.80
16271;DHT22;8243;49.048;8.396;2024-01-25T05:21:08;8.90;96.80
16271;DHT22;8243;49.048;8.396;2024-01-25T05:23:34;8.90;97.60
16271;DHT22;8243;49.048;8.396;2024-01-25T05:26:01;8.80;98.80
16271;DHT22;8243;49.048;8.396;2024-01-25T05:28:27;8.80;99.40
16271;DHT22;8243;49.048;8.396;2024-01-25T05:30:52;8.90;99.40
16271;DHT22;8243;49.048;8.396;2024-01-25T05:33:18;8.80;99.60
16271;DHT22;8243;49.048;8.396;2024-01-25T05:35:43;8.80;99.70
16271;DHT22;8243;49.048;8.396;2024-01-25T05:38:09;8.70;99.70
16271;DHT22;8243;49.048;8.396;2024-01-25T05:40:34;8.60;99.90
16271;DHT22;8243;49.048;8.396;2024-01-25T05:43:00;8.60;99.90
16271;DHT22;8243;49.048;8.396;2024-01-25T05:45:25;8.50;99.90
16271;DHT22;8243;49.048;8.396;2024-01-25T05:47:51;8.40;99.90
16271;DHT22;8243;49.048;8.396;2024-01-25T05:50:17;8.30;99.90
16271;DHT22;8243;49.048;8.396;2024-01-25T05:52:43;8.20;99.90
16271;DHT22;8243;49.048;8.396;2024-01-25T05:55:08;8.10;99.90
16271;DHT22;8243;49.048;8.396;2024-01-25T05:57:36;8.00;99.90
16271;DHT22;8243;49.048;8.396;2024-01-25T06:00:03;7.80;99.90
16271;DHT22;8243;49.048;8.396;2024-01-25T06:02:28;7.70;99.90
16271;DHT22;8243;49.048;8.396;2024-01-25T06:04:54;7.60;99.90
16271;DHT22;8243;49.048;8.396;2024-01-25T06:07:23;7.50;99.90
16271;DHT22;8243;49.048;8.396;2024-01-25T06:09:49;7.40;99.90
16271;DHT22;8243;49.048;8.396;2024-01-25T06:12:14;7.40;99.90
16271;DHT22;8243;49.048;8.396;2024-01-25T06:14:40;7.40;99.90
16271;DHT22;8243;49.048;8.396;2024-01-25T06:17:05;7.40;99.90
16271;DHT22;8243;49.048;8.396;2024-01-25T06:19:32;7.40;99.90
16271;DHT22;8243;49.048;8.396;2024-01-25T06:21:58;7.30;99.90
16271;DHT22;8243;49.048;8.396;2024-01-25T06:24:24;7.30;99.90
16271;DHT22;8243;49.048;8.396;2024-01-25T06:26:49;7.30;99.90
16271;DHT22;8243;49.048;8.396;2024-01-25T06:29:15;7.30;99.90
16271;DHT22;8243;49.048;8.396;2024-01-25T06:31:42;7.20;99.90
16271;DHT22;8243;49.048;8.396;2024-01-25T06:34:10;7.30;99.90
16271;DHT22;8243;49.048;8.396;2024-01-25T06:36:36;7.30;99.90
16271;DHT22;8243;49.048;8.396;2024-01-25T06:39:02;7.20;99.90
16271;DHT22;8243;49.048;8.396;2024-01-25T06:41:29;7.20;99.90
16271;DHT22;8243;49.048;8.396;2024-01-25T06:43:55;7.20;99.90
16271;DHT22;8243;49.048;8.396;2024-01-25T06:46:20;7.20;99.90
16271;DHT22;8243;49.048;8.396;2024-01-25T06:48:46;7.20;99.90
16271;DHT22;8243;49.048;8.396;2024-01-25T06:51:11;7.20;99.90
16271;DHT22;8243;49.048;8.396;2024-01-25T06:53:37;7.20;99.90
16271;DHT22;8243;49.048;8.396;2024-01-25T06:56:02;7.20;99.90
16271;DHT22;8243;49.048;8.396;2024-01-25T06:58:28;7.30;99.90
16271;DHT22;8243;49.048;8.396;2024-01-25T07:00:55;7.30;99.90
16271;DHT22;8243;49.048;8.396;2024-01-25T07:03:20;7.30;99.90
16271;DHT22;8243;49.048;8.396;2024-01-25T07:05:46;7.40;99.90
16271;DHT22;8243;49.048;8.396;2024-01-25T07:08:11;7.50;99.90
16271;DHT22;8243;49.048;8.396;2024-01-25T07:10:41;7.60;99.90
16271;DHT22;8243;49.048;8.396;2024-01-25T07:13:07;7.70;99.90
16271;DHT22;8243;49.048;8.396;2024-01-25T07:15:32;7.70;99.90
16271;DHT22;8243;49.048;8.396;2024-01-25T07:17:58;7.70;99.90
16271;DHT22;8243;49.048;8.396;2024-01-25T07:20:23;7.80;99.90
16271;DHT22;8243;49.048;8.396;2024-01-25T07:22:49;7.90;99.90
16271;DHT22;8243;49.048;8.396;2024-01-25T07:25:15;7.90;99.90
16271;DHT22;8243;49.048;8.396;2024-01-25T07:27:44;8.00;99.90
16271;DHT22;8243;49.048;8.396;2024-01-25T07:30:11;8.10;99.90
16271;DHT22;8243;49.048;8.396;2024-01-25T07:32:37;8.10;99.90
16271;DHT22;8243;49.048;8.396;2024-01-25T07:35:11;8.10;99.90
16271;DHT22;8243;49.048;8.396;2024-01-25T07:37:37;8.10;99.90
16271;DHT22;8243;49.048;8.396;2024-01-25T07:40:03;8.20;99.90
16271;DHT22;8243;49.048;8.396;2024-01-25T07:42:32;8.40;99.90
16271;DHT22;8243;49.048;8.396;2024-01-25T07:44:58;8.60;99.90
16271;DHT22;8243;49.048;8.396;2024-01-25T07:47:24;8.80;99.90
16271;DHT22;8243;49.048;8.396;2024-01-25T07:49:49;9.00;99.90
16271;DHT22;8243;49.048;8.396;2024-01-25T07:52:15;9.40;99.90
16271;DHT22;8243;49.048;8.396;2024-01-25T07:54:40;9.60;99.90
16271;DHT22;8243;49.048;8.396;2024-01-25T07:57:06;9.80;99.90
16271;DHT22;8243;49.048;8.396;2024-01-25T07:59:31;9.80;99.90
16271;DHT22;8243;49.048;8.396;2024-01-25T08:01:57;10.10;99.90
16271;DHT22;8243;49.048;8.396;2024-01-25T08:04:23;10.30;99.90
16271;DHT22;8243;49.048;8.396;2024-01-25T08:06:48;10.50;99.90
16271;DHT22;8243;49.048;8.396;2024-01-25T08:09:15;10.90;99.90
16271;DHT22;8243;49.048;8.396;2024-01-25T08:11:55;11.10;98.10
16271;DHT22;8243;49.048;8.396;2024-01-25T08:14:21;11.50;96.40
16271;DHT22;8243;49.048;8.396;2024-01-25T08:16:46;12.00;92.70
16271;DHT22;8243;49.048;8.396;2024-01-25T08:19:12;12.20;89.30
16271;DHT22;8243;49.048;8.396;2024-01-25T08:21:37;12.10;87.10
16271;DHT22;8243;49.048;8.396;2024-01-25T08:24:03;12.40;83.10
16271;DHT22;8243;49.048;8.396;2024-01-25T08:26:29;12.70;81.80
16271;DHT22;8243;49.048;8.396;2024-01-25T08:28:55;13.00;79.90
16271;DHT22;8243;49.048;8.396;2024-01-25T08:31:20;13.40;74.90
16271;DHT22;8243;49.048;8.396;2024-01-25T08:33:46;13.60;74.90
16271;DHT22;8243;49.048;8.396;2024-01-25T08:36:13;13.80;70.70
16271;DHT22;8243;49.048;8.396;2024-01-25T08:38:42;14.20;66.20
16271;DHT22;8243;49.048;8.396;2024-01-25T08:41:07;14.40;63.50
16271;DHT22;8243;49.048;8.396;2024-01-25T08:43:33;14.70;60.60
16271;DHT22;8243;49.048;8.396;2024-01-25T08:46:00;15.00;58.00
16271;DHT22;8243;49.048;8.396;2024-01-25T08:48:25;15.00;55.60
16271;DHT22;8243;49.048;8.396;2024-01-25T08:50:51;15.00;54.10
16271;DHT22;8243;49.048;8.396;2024-01-25T08:53:19;14.90;54.60
16271;DHT22;8243;49.048;8.396;2024-01-25T08:55:46;14.70;55.10
16271;DHT22;8243;49.048;8.396;2024-01-25T08:58:12;15.00;54.60
16271;DHT22;8243;49.048;8.396;2024-01-25T09:00:37;14.90;53.20
16271;DHT22;8243;49.048;8.396;2024-01-25T09:03:03;15.00;51.30
16271;DHT22;8243;49.048;8.396;2024-01-25T09:05:29;14.80;53.30
16271;DHT22;8243;49.048;8.396;2024-01-25T09:07:54;14.70;52.50
16271;DHT22;8243;49.048;8.396;2024-01-25T09:10:20;14.50;54.20
16271;DHT22;8243;49.048;8.396;2024-01-25T09:12:45;14.50;54.50
16271;DHT22;8243;49.048;8.396;2024-01-25T09:15:11;14.80;53.10
16271;DHT22;8243;49.048;8.396;2024-01-25T09:17:37;15.00;51.40
16271;DHT22;8243;49.048;8.396;2024-01-25T09:20:02;15.10;50.50
16271;DHT22;8243;49.048;8.396;2024-01-25T09:22:28;15.20;50.20
16271;DHT22;8243;49.048;8.396;2024-01-25T09:24:54;15.20;49.50
16271;DHT22;8243;49.048;8.396;2024-01-25T09:27:19;15.50;47.00
16271;DHT22;8243;49.048;8.396;2024-01-25T09:29:45;15.40;46.40
16271;DHT22;8243;49.048;8.396;2024-01-25T09:32:10;15.00;48.10
16271;DHT22;8243;49.048;8.396;2024-01-25T09:34:37;15.20;48.00
16271;DHT22;8243;49.048;8.396;2024-01-25T09:37:03;14.90;48.20
16271;DHT22;8243;49.048;8.396;2024-01-25T09:39:30;14.20;53.90
16271;DHT22;8243;49.048;8.396;2024-01-25T09:41:56;13.80;55.70
16271;DHT22;8243;49.048;8.396;2024-01-25T09:44:22;13.60;60.70
16271;DHT22;8243;49.048;8.396;2024-01-25T09:46:47;13.50;60.90
16271;DHT22;8243;49.048;8.396;2024-01-25T09:49:13;13.60;61.90
16271;DHT22;8243;49.048;8.396;2024-01-25T09:51:41;13.80;59.80
16271;DHT22;8243;49.048;8.396;2024-01-25T09:54:07;13.80;59.80
16271;DHT22;8243;49.048;8.396;2024-01-25T09:56:34;13.70;59.70
16271;DHT22;8243;49.048;8.396;2024-01-25T09:59:00;13.80;61.10
16271;DHT22;8243;49.048;8.396;2024-01-25T10:01:30;13.90;59.20
16271;DHT22;8243;49.048;8.396;2024-01-25T10:03:56;13.90;58.60
16271;DHT22;8243;49.048;8.396;2024-01-25T10:06:22;14.10;57.40
16271;DHT22;8243;49.048;8.396;2024-01-25T10:08:48;14.00;57.20
16271;DHT22;8243;49.048;8.396;2024-01-25T10:11:13;14.20;56.30
16271;DHT22;8243;49.048;8.396;2024-01-25T10:13:46;14.20;56.20
16271;DHT22;8243;49.048;8.396;2024-01-25T10:16:13;14.10;55.50
16271;DHT22;8243;49.048;8.396;2024-01-25T10:18:47;13.90;55.70
16271;DHT22;8243;49.048;8.396;2024-01-25T10:21:15;13.20;59.90
16271;DHT22;8243;49.048;8.396;2024-01-25T10:23:44;12.90;64.00
16271;DHT22;8243;49.048;8.396;2024-01-25T10:26:11;12.90;65.50
16271;DHT22;8243;49.048;8.396;2024-01-25T10:28:37;12.90;64.60
16271;DHT22;8243;49.048;8.396;2024-01-25T10:31:03;12.90;64.80
16271;DHT22;8243;49.048;8.396;2024-01-25T10:33:30;12.70;64.70
16271;DHT22;8243;49.048;8.396;2024-01-25T10:35:57;12.40;67.10
16271;DHT22;8243;49.048;8.396;2024-01-25T10:38:35;12.00;70.80
16271;DHT22;8243;49.048;8.396;2024-01-25T10:41:03;11.80;74.10
16271;DHT22;8243;49.048;8.396;2024-01-25T10:43:29;11.80;77.00
16271;DHT22;8243;49.048;8.396;2024-01-25T10:45:58;11.60;79.90
16271;DHT22;8243;49.048;8.396;2024-01-25T10:48:31;11.60;82.60
16271;DHT22;8243;49.048;8.396;2024-01-25T10:50:57;11.70;83.20
16271;DHT22;8243;49.048;8.396;2024-01-25T10:53:26;11.90;82.70
16271;DHT22;8243;49.048;8.396;2024-01-25T10:55:54;12.30;79.00
16271;DHT22;8243;49.048;8.396;2024-01-25T11:01:24;12.70;73.50
16271;DHT22;8243;49.048;8.396;2024-01-25T11:04:12;12.80;70.90
16271;DHT22;8243;49.048;8.396;2024-01-25T11:06:38;12.80;69.70
16271;DHT22;8243;49.048;8.396;2024-01-25T11:09:06;13.10;69.30
16271;DHT22;8243;49.048;8.396;2024-01-25T11:11:32;13.00;68.00
16271;DHT22;8243;49.048;8.396;2024-01-25T11:13:59;13.30;65.10
16271;DHT22;8243;49.048;8.396;2024-01-25T11:16:35;13.60;62.90
16271;DHT22;8243;49.048;8.396;2024-01-25T11:19:01;13.70;59.70
16271;DHT22;8243;49.048;8.396;2024-01-25T11:24:16;13.50;58.30
16271;DHT22;8243;49.048;8.396;2024-01-25T11:26:46;13.60;59.00
16271;DHT22;8243;49.048;8.396;2024-01-25T11:29:16;13.80;55.70
16271;DHT22;8243;49.048;8.396;2024-01-25T11:31:45;13.50;54.10
16271;DHT22;8243;49.048;8.396;2024-01-25T11:34:12;13.50;54.30
16271;DHT22;8243;49.048;8.396;2024-01-25T11:36:38;13.40;54.90
16271;DHT22;8243;49.048;8.396;2024-01-25T11:39:04;13.40;55.60
16271;DHT22;8243;49.048;8.396;2024-01-25T11:41:31;13.60;54.40
16271;DHT22;8243;49.048;8.396;2024-01-25T11:43:57;13.50;53.20
16271;DHT22;8243;49.048;8.396;2024-01-25T11:46:23;13.50;53.30
16271;DHT22;8243;49.048;8.396;2024-01-25T11:48:50;13.50;53.20
16271;DHT22;8243;49.048;8.396;2024-01-25T11:51:15;13.80;53.10
16271;DHT22;8243;49.048;8.396;2024-01-25T11:53:41;13.80;51.00
16271;DHT22;8243;49.048;8.396;2024-01-25T11:56:10;14.10;50.90
16271;DHT22;8243;49.048;8.396;2024-01-25T11:58:39;14.10;49.90
16271;DHT22;8243;49.048;8.396;2024-01-25T12:01:06;14.20;47.50
16271;DHT22;8243;49.048;8.396;2024-01-25T12:03:36;14.30;46.90
16271;DHT22;8243;49.048;8.396;2024-01-25T12:06:03;14.30;46.10
16271;DHT22;8243;49.048;8.396;2024-01-25T12:08:31;14.40;45.20
16271;DHT22;8243;49.048;8.396;2024-01-25T12:11:10;14.50;45.10
16271;DHT22;8243;49.048;8.396;2024-01-25T12:13:38;14.50;42.80
16271;DHT22;8243;49.048;8.396;2024-01-25T12:16:04;14.60;42.90
16271;DHT22;8243;49.048;8.396;2024-01-25T12:18:31;14.60;43.50
16271;DHT22;8243;49.048;8.396;2024-01-25T12:20:59;14.60;42.30
16271;DHT22;8243;49.048;8.396;2024-01-25T12:23:34;14.70;41.90
16271;DHT22;8243;49.048;8.396;2024-01-25T12:26:04;14.70;40.80
16271;DHT22;8243;49.048;8.396;2024-01-25T12:28:30;14.60;41.30
16271;DHT22;8243;49.048;8.396;2024-01-25T12:30:59;14.50;40.90
16271;DHT22;8243;49.048;8.396;2024-01-25T12:33:25;14.40;41.10
16271;DHT22;8243;49.048;8.396;2024-01-25T12:35:51;14.40;41.10
16271;DHT22;8243;49.048;8.396;2024-01-25T12:38:16;14.30;40.30
16271;DHT22;8243;49.048;8.396;2024-01-25T12:40:44;14.20;40.30
16271;DHT22;8243;49.048;8.396;2024-01-25T12:43:10;14.10;40.90
16271;DHT22;8243;49.048;8.396;2024-01-25T12:45:35;14.00;41.50
16271;DHT22;8243;49.048;8.396;2024-01-25T12:48:01;13.90;40.80
16271;DHT22;8243;49.048;8.396;2024-01-25T12:50:30;13.80;41.80
16271;DHT22;8243;49.048;8.396;2024-01-25T12:52:55;13.70;40.60
16271;DHT22;8243;49.048;8.396;2024-01-25T12:55:21;13.70;40.40
16271;DHT22;8243;49.048;8.396;2024-01-25T12:57:46;13.60;39.30
16271;DHT22;8243;49.048;8.396;2024-01-25T13:00:12;13.60;40.20
16271;DHT22;8243;49.048;8.396;2024-01-25T13:02:38;13.60;40.00
16271;DHT22;8243;49.048;8.396;2024-01-25T13:05:03;13.90;40.20
16271;DHT22;8243;49.048;8.396;2024-01-25T13:07:29;13.90;40.30
16271;DHT22;8243;49.048;8.396;2024-01-25T13:09:54;13.80;38.80
16271;DHT22;8243;49.048;8.396;2024-01-25T13:12:20;13.80;38.90
16271;DHT22;8243;49.048;8.396;2024-01-25T13:14:45;13.50;39.40
16271;DHT22;8243;49.048;8.396;2024-01-25T13:17:11;13.30;41.10
16271;DHT22;8243;49.048;8.396;2024-01-25T13:19:36;13.10;42.10
16271;DHT22;8243;49.048;8.396;2024-01-25T13:22:02;13.10;43.40
16271;DHT22;8243;49.048;8.396;2024-01-25T13:24:28;13.20;44.00
16271;DHT22;8243;49.048;8.396;2024-01-25T13:26:53;13.20;43.60
16271;DHT22;8243;49.048;8.396;2024-01-25T13:29:19;13.10;45.10
16271;DHT22;8243;49.048;8.396;2024-01-25T13:31:44;13.00;47.60
16271;DHT22;8243;49.048;8.396;2024-01-25T13:34:10;13.00;47.00
16271;DHT22;8243;49.048;8.396;2024-01-25T13:36:35;13.00;47.10
16271;DHT22;8243;49.048;8.396;2024-01-25T13:39:01;12.90;47.80
16271;DHT22;8243;49.048;8.396;2024-01-25T13:41:27;13.00;48.40
16271;DHT22;8243;49.048;8.396;2024-01-25T13:43:52;13.20;47.80
16271;DHT22;8243;49.048;8.396;2024-01-25T13:46:18;13.10;47.70
16271;DHT22;8243;49.048;8.396;2024-01-25T13:48:44;13.00;48.10
16271;DHT22;8243;49.048;8.396;2024-01-25T13:51:09;13.00;49.00
16271;DHT22;8243;49.048;8.396;2024-01-25T13:53:35;12.90;50.00
16271;DHT22;8243;49.048;8.396;2024-01-25T13:56:01;12.80;50.80
16271;DHT22;8243;49.048;8.396;2024-01-25T13:58:26;12.70;53.10
16271;DHT22;8243;49.048;8.396;2024-01-25T14:00:52;12.60;53.70
16271;DHT22;8243;49.048;8.396;2024-01-25T14:03:18;12.60;55.40
16271;DHT22;8243;49.048;8.396;2024-01-25T14:05:43;12.60;56.10
16271;DHT22;8243;49.048;8.396;2024-01-25T14:08:09;12.60;56.80
16271;DHT22;8243;49.048;8.396;2024-01-25T14:10:34;12.60;57.70
16271;DHT22;8243;49.048;8.396;2024-01-25T14:13:01;12.50;58.60
16271;DHT22;8243;49.048;8.396;2024-01-25T14:15:27;12.40;60.10
16271;DHT22;8243;49.048;8.396;2024-01-25T14:17:53;12.30;61.70
16271;DHT22;8243;49.048;8.396;2024-01-25T14:20:18;12.30;63.80
16271;DHT22;8243;49.048;8.396;2024-01-25T14:22:44;12.30;64.30
16271;DHT22;8243;49.048;8.396;2024-01-25T14:25:10;12.20;66.00
16271;DHT22;8243;49.048;8.396;2024-01-25T14:27:35;12.30;66.70
16271;DHT22;8243;49.048;8.396;2024-01-25T14:30:01;12.30;67.60
16271;DHT22;8243;49.048;8.396;2024-01-25T14:32:29;12.30;68.80
16271;DHT22;8243;49.048;8.396;2024-01-25T14:34:54;12.20;69.80
16271;DHT22;8243;49.048;8.396;2024-01-25T14:37:20;12.20;71.20
16271;DHT22;8243;49.048;8.396;2024-01-25T14:39:46;12.10;73.30
16271;DHT22;8243;49.048;8.396;2024-01-25T14:42:11;12.00;75.30
16271;DHT22;8243;49.048;8.396;2024-01-25T14:44:38;12.10;76.10
16271;DHT22;8243;49.048;8.396;2024-01-25T14:47:04;12.10;77.10
16271;DHT22;8243;49.048;8.396;2024-01-25T14:49:29;12.00;78.40
16271;DHT22;8243;49.048;8.396;2024-01-25T14:51:55;12.00;80.50
16271;DHT22;8243;49.048;8.396;2024-01-25T14:54:21;12.00;82.60
16271;DHT22;8243;49.048;8.396;2024-01-25T14:56:46;11.90;83.50
16271;DHT22;8243;49.048;8.396;2024-01-25T14:59:15;11.90;85.10
16271;DHT22;8243;49.048;8.396;2024-01-25T15:01:41;11.80;87.70
16271;DHT22;8243;49.048;8.396;2024-01-25T15:04:08;11.70;88.70
16271;DHT22;8243;49.048;8.396;2024-01-25T15:06:33;11.70;89.60
16271;DHT22;8243;49.048;8.396;2024-01-25T15:08:59;11.50;90.90
16271;DHT22;8243;49.048;8.396;2024-01-25T15:11:24;11.50;91.60
16271;DHT22;8243;49.048;8.396;2024-01-25T15:13:50;11.50;92.40
16271;DHT22;8243;49.048;8.396;2024-01-25T15:16:16;11.40;94.00
16271;DHT22;8243;49.048;8.396;2024-01-25T15:18:41;11.30;96.80
16271;DHT22;8243;49.048;8.396;2024-01-25T15:21:07;11.30;98.30
16271;DHT22;8243;49.048;8.396;2024-01-25T15:23:33;11.30;99.90
16271;DHT22;8243;49.048;8.396;2024-01-25T15:25:58;11.20;99.90
16271;DHT22;8243;49.048;8.396;2024-01-25T15:28:24;11.10;99.90
16271;DHT22;8243;49.048;8.396;2024-01-25T15:30:49;10.90;99.90
16271;DHT22;8243;49.048;8.396;2024-01-25T15:33:15;10.80;99.90
16271;DHT22;8243;49.048;8.396;2024-01-25T15:35:41;10.80;99.90
16271;DHT22;8243;49.048;8.396;2024-01-25T15:38:06;10.70;99.90
16271;DHT22;8243;49.048;8.396;2024-01-25T15:40:33;10.70;99.90
16271;DHT22;8243;49.048;8.396;2024-01-25T15:42:59;10.60;99.90
16271;DHT22;8243;49.048;8.396;2024-01-25T15:45:25;10.50;99.90
16271;DHT22;8243;49.048;8.396;2024-01-25T15:47:50;10.50;99.90